sensor_id;sensor_type;location;lat;lon;timestamp;P1;durP1;ratioP1;P2;durP2;ratioP2
64597;SDS011;51004;54.692;9.332;2023-08-21T00:02:14;26.58;;;4.10;;
64597;SDS011;51004;54.692;9.332;2023-08-21T00:04:40;25.98;;;3.72;;
64597;SDS011;51004;54.692;9.332;2023-08-21T00:07:06;23.48;;;4.10;;
64597;SDS011;51004;54.692;9.332;2023-08-21T00:09:34;23.40;;;4.30;;
64597;SDS011;51004;54.692;9.332;2023-08-21T00:12:00;9.93;;;3.72;;
64597;SDS011;51004;54.692;9.332;2023-08-21T00:14:26;7.80;;;4.20;;
64597;SDS011;51004;54.692;9.332;2023-08-21T00:16:52;23.92;;;4.32;;
64597;SDS011;51004;54.692;9.332;2023-08-21T00:19:18;12.15;;;3.78;;
64597;SDS011;51004;54.692;9.332;2023-08-21T00:21:44;18.27;;;4.00;;
64597;SDS011;51004;54.692;9.332;2023-08-21T00:24:10;26.90;;;4.60;;
64597;SDS011;51004;54.692;9.332;2023-08-21T00:26:36;23.95;;;3.97;;
64597;SDS011;51004;54.692;9.332;2023-08-21T00:29:02;18.95;;;4.05;;
64597;SDS011;51004;54.692;9.332;2023-08-21T00:31:28;15.05;;;4.03;;
64597;SDS011;51004;54.692;9.332;2023-08-21T00:33:54;23.30;;;4.70;;
64597;SDS011;51004;54.692;9.332;2023-08-21T00:36:20;8.82;;;4.20;;
64597;SDS011;51004;54.692;9.332;2023-08-21T00:38:46;10.50;;;4.40;;
64597;SDS011;51004;54.692;9.332;2023-08-21T00:41:13;15.18;;;4.95;;
64597;SDS011;51004;54.692;9.332;2023-08-21T00:43:39;19.60;;;4.50;;
64597;SDS011;51004;54.692;9.332;2023-08-21T00:46:05;15.18;;;4.57;;
64597;SDS011;51004;54.692;9.332;2023-08-21T00:48:32;6.93;;;4.93;;
64597;SDS011;51004;54.692;9.332;2023-08-21T00:50:58;17.10;;;5.20;;
64597;SDS011;51004;54.692;9.332;2023-08-21T00:53:24;13.75;;;4.82;;
64597;SDS011;51004;54.692;9.332;2023-08-21T00:55:50;18.10;;;4.82;;
64597;SDS011;51004;54.692;9.332;2023-08-21T00:58:17;16.75;;;4.50;;
64597;SDS011;51004;54.692;9.332;2023-08-21T01:00:44;11.20;;;4.65;;
64597;SDS011;51004;54.692;9.332;2023-08-21T01:03:12;30.27;;;5.20;;
64597;SDS011;51004;54.692;9.332;2023-08-21T01:05:38;12.88;;;4.20;;
64597;SDS011;51004;54.692;9.332;2023-08-21T01:13:11;31.08;;;4.47;;
64597;SDS011;51004;54.692;9.332;2023-08-21T01:15:40;18.30;;;4.45;;
64597;SDS011;51004;54.692;9.332;2023-08-21T01:18:07;44.25;;;4.53;;
64597;SDS011;51004;54.692;9.332;2023-08-21T01:20:34;45.25;;;4.85;;
64597;SDS011;51004;54.692;9.332;2023-08-21T01:23:03;25.77;;;4.50;;
64597;SDS011;51004;54.692;9.332;2023-08-21T01:25:30;18.73;;;4.20;;
64597;SDS011;51004;54.692;9.332;2023-08-21T01:27:57;15.43;;;4.07;;
64597;SDS011;51004;54.692;9.332;2023-08-21T01:30:23;14.43;;;4.32;;
64597;SDS011;51004;54.692;9.332;2023-08-21T01:32:58;5.32;;;4.13;;
64597;SDS011;51004;54.692;9.332;2023-08-21T01:35:24;15.70;;;4.50;;
64597;SDS011;51004;54.692;9.332;2023-08-21T01:37:51;9.27;;;3.97;;
64597;SDS011;51004;54.692;9.332;2023-08-21T01:40:21;10.88;;;3.97;;
64597;SDS011;51004;54.692;9.332;2023-08-21T01:42:47;5.57;;;4.22;;
64597;SDS011;51004;54.692;9.332;2023-08-21T01:45:13;4.00;;;3.35;;
64597;SDS011;51004;54.692;9.332;2023-08-21T01:47:39;7.82;;;3.65;;
64597;SDS011;51004;54.692;9.332;2023-08-21T01:50:05;4.88;;;3.70;;
64597;SDS011;51004;54.692;9.332;2023-08-21T01:52:31;5.28;;;3.55;;
64597;SDS011;51004;54.692;9.332;2023-08-21T01:54:57;5.45;;;4.03;;
64597;SDS011;51004;54.692;9.332;2023-08-21T01:57:23;6.10;;;4.22;;
64597;SDS011;51004;54.692;9.332;2023-08-21T01:59:49;13.00;;;4.32;;
64597;SDS011;51004;54.692;9.332;2023-08-21T02:02:15;5.47;;;4.32;;
64597;SDS011;51004;54.692;9.332;2023-08-21T02:04:41;6.90;;;4.40;;
64597;SDS011;51004;54.692;9.332;2023-08-21T02:07:07;4.78;;;4.05;;
64597;SDS011;51004;54.692;9.332;2023-08-21T02:09:33;6.03;;;4.30;;
64597;SDS011;51004;54.692;9.332;2023-08-21T02:12:00;4.10;;;3.80;;
64597;SDS011;51004;54.692;9.332;2023-08-21T02:14:26;4.78;;;4.38;;
64597;SDS011;51004;54.692;9.332;2023-08-21T02:16:52;5.15;;;4.00;;
64597;SDS011;51004;54.692;9.332;2023-08-21T02:19:18;5.75;;;3.78;;
64597;SDS011;51004;54.692;9.332;2023-08-21T02:21:44;5.93;;;4.10;;
64597;SDS011;51004;54.692;9.332;2023-08-21T02:24:10;16.15;;;4.53;;
64597;SDS011;51004;54.692;9.332;2023-08-21T02:26:36;15.10;;;4.72;;
64597;SDS011;51004;54.692;9.332;2023-08-21T02:29:02;12.25;;;4.47;;
64597;SDS011;51004;54.692;9.332;2023-08-21T02:31:28;8.90;;;4.93;;
64597;SDS011;51004;54.692;9.332;2023-08-21T02:33:55;16.92;;;4.45;;
64597;SDS011;51004;54.692;9.332;2023-08-21T02:36:21;18.25;;;4.53;;
64597;SDS011;51004;54.692;9.332;2023-08-21T02:38:47;16.40;;;4.53;;
64597;SDS011;51004;54.692;9.332;2023-08-21T02:41:13;19.50;;;4.78;;
64597;SDS011;51004;54.692;9.332;2023-08-21T02:43:39;22.77;;;5.35;;
64597;SDS011;51004;54.692;9.332;2023-08-21T02:46:05;11.63;;;5.45;;
64597;SDS011;51004;54.692;9.332;2023-08-21T02:48:31;11.15;;;5.00;;
64597;SDS011;51004;54.692;9.332;2023-08-21T02:50:57;11.02;;;4.80;;
64597;SDS011;51004;54.692;9.332;2023-08-21T02:53:24;18.67;;;5.15;;
64597;SDS011;51004;54.692;9.332;2023-08-21T02:55:50;17.38;;;4.43;;
64597;SDS011;51004;54.692;9.332;2023-08-21T02:58:16;12.32;;;4.70;;
64597;SDS011;51004;54.692;9.332;2023-08-21T03:00:42;20.63;;;4.57;;
64597;SDS011;51004;54.692;9.332;2023-08-21T03:03:08;22.33;;;4.53;;
64597;SDS011;51004;54.692;9.332;2023-08-21T03:05:34;18.85;;;4.60;;
64597;SDS011;51004;54.692;9.332;2023-08-21T03:08:00;16.88;;;4.53;;
64597;SDS011;51004;54.692;9.332;2023-08-21T03:10:26;16.15;;;4.18;;
64597;SDS011;51004;54.692;9.332;2023-08-21T03:12:58;35.63;;;4.30;;
64597;SDS011;51004;54.692;9.332;2023-08-21T03:15:24;17.33;;;4.47;;
64597;SDS011;51004;54.692;9.332;2023-08-21T03:17:50;25.58;;;4.60;;
64597;SDS011;51004;54.692;9.332;2023-08-21T03:20:23;27.38;;;4.38;;
64597;SDS011;51004;54.692;9.332;2023-08-21T03:22:49;17.60;;;4.40;;
64597;SDS011;51004;54.692;9.332;2023-08-21T03:25:15;15.40;;;5.40;;
64597;SDS011;51004;54.692;9.332;2023-08-21T03:27:46;16.95;;;4.35;;
64597;SDS011;51004;54.692;9.332;2023-08-21T03:30:14;21.00;;;4.88;;
64597;SDS011;51004;54.692;9.332;2023-08-21T03:32:40;18.27;;;4.80;;
64597;SDS011;51004;54.692;9.332;2023-08-21T03:35:06;25.10;;;4.70;;
64597;SDS011;51004;54.692;9.332;2023-08-21T03:37:33;31.30;;;4.32;;
64597;SDS011;51004;54.692;9.332;2023-08-21T03:39:59;6.38;;;4.18;;
64597;SDS011;51004;54.692;9.332;2023-08-21T03:42:25;12.32;;;4.53;;
64597;SDS011;51004;54.692;9.332;2023-08-21T03:44:51;15.85;;;4.43;;
64597;SDS011;51004;54.692;9.332;2023-08-21T03:47:17;14.30;;;4.35;;
64597;SDS011;51004;54.692;9.332;2023-08-21T03:49:43;21.35;;;4.38;;
64597;SDS011;51004;54.692;9.332;2023-08-21T03:52:09;24.30;;;4.55;;
64597;SDS011;51004;54.692;9.332;2023-08-21T03:54:35;15.55;;;5.15;;
64597;SDS011;51004;54.692;9.332;2023-08-21T03:57:01;9.93;;;4.07;;
64597;SDS011;51004;54.692;9.332;2023-08-21T03:59:27;24.13;;;4.57;;
64597;SDS011;51004;54.692;9.332;2023-08-21T04:01:54;17.13;;;4.53;;
64597;SDS011;51004;54.692;9.332;2023-08-21T04:04:20;20.33;;;4.45;;
64597;SDS011;51004;54.692;9.332;2023-08-21T04:06:52;18.77;;;4.22;;
64597;SDS011;51004;54.692;9.332;2023-08-21T04:09:18;14.70;;;4.38;;
64597;SDS011;51004;54.692;9.332;2023-08-21T04:11:44;21.80;;;5.75;;
64597;SDS011;51004;54.692;9.332;2023-08-21T04:14:10;6.25;;;4.20;;
64597;SDS011;51004;54.692;9.332;2023-08-21T04:16:36;15.18;;;4.38;;
64597;SDS011;51004;54.692;9.332;2023-08-21T04:19:02;4.90;;;4.50;;
64597;SDS011;51004;54.692;9.332;2023-08-21T04:21:28;11.10;;;5.40;;
64597;SDS011;51004;54.692;9.332;2023-08-21T04:23:54;5.68;;;5.18;;
64597;SDS011;51004;54.692;9.332;2023-08-21T04:26:20;10.70;;;5.03;;
64597;SDS011;51004;54.692;9.332;2023-08-21T04:28:46;9.38;;;5.40;;
64597;SDS011;51004;54.692;9.332;2023-08-21T04:31:12;5.97;;;4.63;;
64597;SDS011;51004;54.692;9.332;2023-08-21T04:33:38;6.07;;;4.47;;
64597;SDS011;51004;54.692;9.332;2023-08-21T04:36:04;24.42;;;5.40;;
64597;SDS011;51004;54.692;9.332;2023-08-21T04:38:31;26.83;;;5.25;;
64597;SDS011;51004;54.692;9.332;2023-08-21T04:41:05;22.13;;;5.25;;
64597;SDS011;51004;54.692;9.332;2023-08-21T04:43:31;22.98;;;5.32;;
64597;SDS011;51004;54.692;9.332;2023-08-21T04:45:57;17.05;;;5.07;;
64597;SDS011;51004;54.692;9.332;2023-08-21T04:48:23;24.45;;;5.20;;
64597;SDS011;51004;54.692;9.332;2023-08-21T04:50:50;18.92;;;5.28;;
64597;SDS011;51004;54.692;9.332;2023-08-21T04:53:16;15.52;;;5.35;;
64597;SDS011;51004;54.692;9.332;2023-08-21T04:55:42;14.90;;;5.63;;
64597;SDS011;51004;54.692;9.332;2023-08-21T04:58:08;9.32;;;5.85;;
64597;SDS011;51004;54.692;9.332;2023-08-21T05:00:35;10.73;;;5.65;;
64597;SDS011;51004;54.692;9.332;2023-08-21T05:03:01;10.38;;;6.25;;
64597;SDS011;51004;54.692;9.332;2023-08-21T05:05:27;10.20;;;5.75;;
64597;SDS011;51004;54.692;9.332;2023-08-21T05:07:53;8.65;;;5.82;;
64597;SDS011;51004;54.692;9.332;2023-08-21T05:10:19;10.65;;;5.38;;
64597;SDS011;51004;54.692;9.332;2023-08-21T05:12:46;8.35;;;5.68;;
64597;SDS011;51004;54.692;9.332;2023-08-21T05:15:12;8.65;;;5.72;;
64597;SDS011;51004;54.692;9.332;2023-08-21T05:17:39;11.70;;;6.63;;
64597;SDS011;51004;54.692;9.332;2023-08-21T05:20:05;10.13;;;5.60;;
64597;SDS011;51004;54.692;9.332;2023-08-21T05:22:31;6.47;;;5.15;;
64597;SDS011;51004;54.692;9.332;2023-08-21T05:24:58;15.15;;;5.28;;
64597;SDS011;51004;54.692;9.332;2023-08-21T05:27:24;10.65;;;5.00;;
64597;SDS011;51004;54.692;9.332;2023-08-21T05:29:53;16.38;;;4.88;;
64597;SDS011;51004;54.692;9.332;2023-08-21T05:32:19;8.35;;;5.25;;
64597;SDS011;51004;54.692;9.332;2023-08-21T05:34:45;6.72;;;5.75;;
64597;SDS011;51004;54.692;9.332;2023-08-21T05:37:11;12.35;;;5.40;;
64597;SDS011;51004;54.692;9.332;2023-08-21T06:03:11;7.65;;;6.07;;
64597;SDS011;51004;54.692;9.332;2023-08-21T06:05:37;10.38;;;6.72;;
64597;SDS011;51004;54.692;9.332;2023-08-21T06:08:03;6.50;;;5.80;;
64597;SDS011;51004;54.692;9.332;2023-08-21T06:10:30;8.40;;;6.57;;
64597;SDS011;51004;54.692;9.332;2023-08-21T06:12:56;8.48;;;6.10;;
64597;SDS011;51004;54.692;9.332;2023-08-21T06:15:22;10.73;;;6.70;;
64597;SDS011;51004;54.692;9.332;2023-08-21T06:17:48;9.55;;;6.82;;
64597;SDS011;51004;54.692;9.332;2023-08-21T06:20:14;9.77;;;7.30;;
64597;SDS011;51004;54.692;9.332;2023-08-21T06:22:40;10.88;;;7.40;;
64597;SDS011;51004;54.692;9.332;2023-08-21T06:25:07;10.70;;;7.38;;
64597;SDS011;51004;54.692;9.332;2023-08-21T06:27:33;10.50;;;7.68;;
64597;SDS011;51004;54.692;9.332;2023-08-21T06:29:59;11.43;;;7.53;;
64597;SDS011;51004;54.692;9.332;2023-08-21T06:32:25;9.63;;;7.63;;
64597;SDS011;51004;54.692;9.332;2023-08-21T06:34:51;10.48;;;7.78;;
64597;SDS011;51004;54.692;9.332;2023-08-21T06:37:17;11.50;;;8.13;;
64597;SDS011;51004;54.692;9.332;2023-08-21T06:39:43;12.55;;;8.70;;
64597;SDS011;51004;54.692;9.332;2023-08-21T06:42:09;14.48;;;8.68;;
64597;SDS011;51004;54.692;9.332;2023-08-21T06:44:35;17.73;;;8.75;;
64597;SDS011;51004;54.692;9.332;2023-08-21T06:47:01;18.85;;;9.93;;
64597;SDS011;51004;54.692;9.332;2023-08-21T06:49:27;16.20;;;10.23;;
64597;SDS011;51004;54.692;9.332;2023-08-21T06:51:53;18.45;;;9.15;;
64597;SDS011;51004;54.692;9.332;2023-08-21T06:54:19;18.17;;;9.63;;
64597;SDS011;51004;54.692;9.332;2023-08-21T06:56:45;15.77;;;10.07;;
64597;SDS011;51004;54.692;9.332;2023-08-21T06:59:10;19.38;;;10.60;;
64597;SDS011;51004;54.692;9.332;2023-08-21T07:01:36;20.08;;;10.85;;
64597;SDS011;51004;54.692;9.332;2023-08-21T07:04:02;24.65;;;10.75;;
64597;SDS011;51004;54.692;9.332;2023-08-21T07:06:29;20.02;;;10.48;;
64597;SDS011;51004;54.692;9.332;2023-08-21T07:08:56;20.85;;;10.68;;
64597;SDS011;51004;54.692;9.332;2023-08-21T07:11:22;22.90;;;11.30;;
64597;SDS011;51004;54.692;9.332;2023-08-21T07:13:48;23.00;;;10.88;;
64597;SDS011;51004;54.692;9.332;2023-08-21T07:16:14;23.95;;;11.32;;
64597;SDS011;51004;54.692;9.332;2023-08-21T07:18:40;23.38;;;11.85;;
64597;SDS011;51004;54.692;9.332;2023-08-21T07:21:06;23.13;;;11.07;;
64597;SDS011;51004;54.692;9.332;2023-08-21T07:23:39;29.80;;;13.32;;
64597;SDS011;51004;54.692;9.332;2023-08-21T07:28:32;23.27;;;9.45;;
64597;SDS011;51004;54.692;9.332;2023-08-21T07:30:58;22.08;;;10.75;;
64597;SDS011;51004;54.692;9.332;2023-08-21T07:33:24;33.95;;;12.13;;
64597;SDS011;51004;54.692;9.332;2023-08-21T07:35:57;23.90;;;9.85;;
64597;SDS011;51004;54.692;9.332;2023-08-21T07:38:23;25.67;;;10.77;;
64597;SDS011;51004;54.692;9.332;2023-08-21T07:40:50;24.27;;;10.45;;
64597;SDS011;51004;54.692;9.332;2023-08-21T07:43:16;17.85;;;9.40;;
64597;SDS011;51004;54.692;9.332;2023-08-21T07:45:42;22.58;;;10.77;;
64597;SDS011;51004;54.692;9.332;2023-08-21T07:48:08;28.85;;;10.48;;
64597;SDS011;51004;54.692;9.332;2023-08-21T07:50:34;24.25;;;10.00;;
64597;SDS011;51004;54.692;9.332;2023-08-21T07:53:00;20.88;;;8.98;;
64597;SDS011;51004;54.692;9.332;2023-08-21T07:57:56;18.35;;;7.53;;
64597;SDS011;51004;54.692;9.332;2023-08-21T08:00:22;16.50;;;7.25;;
64597;SDS011;51004;54.692;9.332;2023-08-21T08:02:48;22.45;;;7.18;;
64597;SDS011;51004;54.692;9.332;2023-08-21T08:05:14;18.20;;;7.07;;
64597;SDS011;51004;54.692;9.332;2023-08-21T08:07:40;19.02;;;7.10;;
64597;SDS011;51004;54.692;9.332;2023-08-21T08:10:06;15.57;;;5.80;;
64597;SDS011;51004;54.692;9.332;2023-08-21T08:12:32;15.82;;;4.72;;
64597;SDS011;51004;54.692;9.332;2023-08-21T08:14:58;13.20;;;4.70;;
64597;SDS011;51004;54.692;9.332;2023-08-21T08:17:24;14.70;;;3.90;;
64597;SDS011;51004;54.692;9.332;2023-08-21T08:19:50;12.25;;;3.03;;
64597;SDS011;51004;54.692;9.332;2023-08-21T08:22:16;8.63;;;2.88;;
64597;SDS011;51004;54.692;9.332;2023-08-21T08:24:42;7.82;;;2.45;;
64597;SDS011;51004;54.692;9.332;2023-08-21T08:27:08;10.60;;;2.88;;
64597;SDS011;51004;54.692;9.332;2023-08-21T08:29:35;8.75;;;2.47;;
64597;SDS011;51004;54.692;9.332;2023-08-21T08:32:01;9.13;;;2.22;;
64597;SDS011;51004;54.692;9.332;2023-08-21T08:34:27;8.93;;;2.72;;
64597;SDS011;51004;54.692;9.332;2023-08-21T08:36:53;6.93;;;1.90;;
64597;SDS011;51004;54.692;9.332;2023-08-21T08:39:19;6.75;;;1.90;;
64597;SDS011;51004;54.692;9.332;2023-08-21T08:41:56;8.73;;;2.00;;
64597;SDS011;51004;54.692;9.332;2023-08-21T08:44:24;7.75;;;2.17;;
64597;SDS011;51004;54.692;9.332;2023-08-21T08:46:51;6.93;;;2.50;;
64597;SDS011;51004;54.692;9.332;2023-08-21T08:49:17;8.35;;;2.05;;
64597;SDS011;51004;54.692;9.332;2023-08-21T08:51:44;6.22;;;2.35;;
64597;SDS011;51004;54.692;9.332;2023-08-21T08:54:10;9.20;;;2.90;;
64597;SDS011;51004;54.692;9.332;2023-08-21T08:56:37;9.55;;;2.42;;
64597;SDS011;51004;54.692;9.332;2023-08-21T08:59:03;15.68;;;2.97;;
64597;SDS011;51004;54.692;9.332;2023-08-21T09:01:29;5.95;;;2.00;;
64597;SDS011;51004;54.692;9.332;2023-08-21T09:03:55;8.32;;;2.47;;
64597;SDS011;51004;54.692;9.332;2023-08-21T09:06:21;9.80;;;2.10;;
64597;SDS011;51004;54.692;9.332;2023-08-21T09:08:52;8.13;;;2.22;;
64597;SDS011;51004;54.692;9.332;2023-08-21T09:11:19;12.57;;;2.30;;
64597;SDS011;51004;54.692;9.332;2023-08-21T09:13:45;10.13;;;2.25;;
64597;SDS011;51004;54.692;9.332;2023-08-21T09:16:11;8.80;;;2.25;;
64597;SDS011;51004;54.692;9.332;2023-08-21T09:18:41;10.32;;;2.30;;
64597;SDS011;51004;54.692;9.332;2023-08-21T09:21:11;7.90;;;1.98;;
64597;SDS011;51004;54.692;9.332;2023-08-21T09:23:38;9.50;;;2.67;;
64597;SDS011;51004;54.692;9.332;2023-08-21T09:26:04;7.82;;;2.10;;
64597;SDS011;51004;54.692;9.332;2023-08-21T09:28:29;9.32;;;1.90;;
64597;SDS011;51004;54.692;9.332;2023-08-21T09:30:57;5.05;;;1.52;;
64597;SDS011;51004;54.692;9.332;2023-08-21T09:33:24;7.18;;;1.70;;
64597;SDS011;51004;54.692;9.332;2023-08-21T09:35:53;9.38;;;1.58;;
64597;SDS011;51004;54.692;9.332;2023-08-21T09:38:19;3.22;;;1.20;;
64597;SDS011;51004;54.692;9.332;2023-08-21T09:40:52;5.65;;;1.35;;
64597;SDS011;51004;54.692;9.332;2023-08-21T09:43:18;4.40;;;1.33;;
64597;SDS011;51004;54.692;9.332;2023-08-21T09:45:46;6.10;;;1.60;;
64597;SDS011;51004;54.692;9.332;2023-08-21T09:48:13;5.25;;;1.73;;
64597;SDS011;51004;54.692;9.332;2023-08-21T09:50:39;11.10;;;3.00;;
64597;SDS011;51004;54.692;9.332;2023-08-21T09:53:08;8.95;;;1.95;;
64597;SDS011;51004;54.692;9.332;2023-08-21T09:55:34;6.78;;;1.40;;
64597;SDS011;51004;54.692;9.332;2023-08-21T09:58:01;5.85;;;1.63;;
64597;SDS011;51004;54.692;9.332;2023-08-21T10:00:31;6.55;;;2.15;;
64597;SDS011;51004;54.692;9.332;2023-08-21T10:03:01;5.45;;;1.27;;
64597;SDS011;51004;54.692;9.332;2023-08-21T10:05:28;5.35;;;1.38;;
64597;SDS011;51004;54.692;9.332;2023-08-21T10:07:55;8.25;;;1.50;;
64597;SDS011;51004;54.692;9.332;2023-08-21T10:10:22;6.32;;;1.77;;
64597;SDS011;51004;54.692;9.332;2023-08-21T10:12:48;4.60;;;1.30;;
64597;SDS011;51004;54.692;9.332;2023-08-21T10:15:14;3.88;;;1.65;;
64597;SDS011;51004;54.692;9.332;2023-08-21T10:17:41;4.50;;;1.00;;
64597;SDS011;51004;54.692;9.332;2023-08-21T10:20:08;4.28;;;1.10;;
64597;SDS011;51004;54.692;9.332;2023-08-21T10:22:45;4.28;;;1.05;;
64597;SDS011;51004;54.692;9.332;2023-08-21T10:25:21;7.03;;;1.35;;
64597;SDS011;51004;54.692;9.332;2023-08-21T10:27:51;3.72;;;1.10;;
64597;SDS011;51004;54.692;9.332;2023-08-21T10:30:27;5.15;;;1.40;;
64597;SDS011;51004;54.692;9.332;2023-08-21T10:32:54;5.07;;;1.45;;
64597;SDS011;51004;54.692;9.332;2023-08-21T10:35:21;5.90;;;1.50;;
64597;SDS011;51004;54.692;9.332;2023-08-21T10:40:32;5.22;;;1.40;;
64597;SDS011;51004;54.692;9.332;2023-08-21T10:42:59;5.50;;;1.02;;
64597;SDS011;51004;54.692;9.332;2023-08-21T10:45:25;3.17;;;0.85;;
64597;SDS011;51004;54.692;9.332;2023-08-21T10:47:50;6.10;;;1.17;;
64597;SDS011;51004;54.692;9.332;2023-08-21T10:50:16;5.10;;;1.25;;
64597;SDS011;51004;54.692;9.332;2023-08-21T10:52:43;3.42;;;0.90;;
64597;SDS011;51004;54.692;9.332;2023-08-21T10:55:13;7.55;;;2.33;;
64597;SDS011;51004;54.692;9.332;2023-08-21T10:57:40;4.80;;;1.23;;
64597;SDS011;51004;54.692;9.332;2023-08-21T11:00:09;4.95;;;1.30;;
64597;SDS011;51004;54.692;9.332;2023-08-21T11:02:36;7.13;;;1.48;;
64597;SDS011;51004;54.692;9.332;2023-08-21T11:05:03;5.35;;;1.25;;
64597;SDS011;51004;54.692;9.332;2023-08-21T11:07:30;3.55;;;0.93;;
64597;SDS011;51004;54.692;9.332;2023-08-21T11:09:56;4.70;;;1.40;;
64597;SDS011;51004;54.692;9.332;2023-08-21T11:12:23;4.07;;;1.10;;
64597;SDS011;51004;54.692;9.332;2023-08-21T11:14:49;3.97;;;1.20;;
64597;SDS011;51004;54.692;9.332;2023-08-21T11:17:15;8.55;;;1.33;;
64597;SDS011;51004;54.692;9.332;2023-08-21T11:19:43;4.65;;;1.25;;
64597;SDS011;51004;54.692;9.332;2023-08-21T11:22:10;3.97;;;1.05;;
64597;SDS011;51004;54.692;9.332;2023-08-21T11:27:05;4.10;;;0.90;;
64597;SDS011;51004;54.692;9.332;2023-08-21T11:32:16;3.88;;;1.20;;
64597;SDS011;51004;54.692;9.332;2023-08-21T11:34:47;4.70;;;1.00;;
64597;SDS011;51004;54.692;9.332;2023-08-21T11:37:13;3.75;;;1.10;;
64597;SDS011;51004;54.692;9.332;2023-08-21T11:39:57;6.22;;;1.58;;
64597;SDS011;51004;54.692;9.332;2023-08-21T11:42:30;4.20;;;1.20;;
64597;SDS011;51004;54.692;9.332;2023-08-21T11:45:13;3.53;;;0.95;;
64597;SDS011;51004;54.692;9.332;2023-08-21T11:47:39;5.53;;;1.00;;
64597;SDS011;51004;54.692;9.332;2023-08-21T11:50:06;3.88;;;1.10;;
64597;SDS011;51004;54.692;9.332;2023-08-21T11:52:32;7.25;;;1.17;;
64597;SDS011;51004;54.692;9.332;2023-08-21T11:55:00;6.75;;;1.40;;
64597;SDS011;51004;54.692;9.332;2023-08-21T11:57:26;4.50;;;1.10;;
64597;SDS011;51004;54.692;9.332;2023-08-21T11:59:55;5.10;;;1.38;;
64597;SDS011;51004;54.692;9.332;2023-08-21T12:02:25;3.63;;;1.42;;
64597;SDS011;51004;54.692;9.332;2023-08-21T12:04:52;2.35;;;1.00;;
64597;SDS011;51004;54.692;9.332;2023-08-21T12:07:18;5.50;;;1.98;;
64597;SDS011;51004;54.692;9.332;2023-08-21T12:09:48;4.60;;;1.10;;
64597;SDS011;51004;54.692;9.332;2023-08-21T12:12:14;3.17;;;0.80;;
64597;SDS011;51004;54.692;9.332;2023-08-21T12:14:45;3.72;;;1.08;;
64597;SDS011;51004;54.692;9.332;2023-08-21T12:17:11;3.78;;;1.02;;
64597;SDS011;51004;54.692;9.332;2023-08-21T12:19:37;6.68;;;1.20;;
64597;SDS011;51004;54.692;9.332;2023-08-21T12:22:03;3.08;;;0.90;;
64597;SDS011;51004;54.692;9.332;2023-08-21T12:24:29;3.58;;;0.98;;
64597;SDS011;51004;54.692;9.332;2023-08-21T12:26:55;3.47;;;0.93;;
64597;SDS011;51004;54.692;9.332;2023-08-21T12:29:21;6.82;;;1.20;;
64597;SDS011;51004;54.692;9.332;2023-08-21T12:31:48;5.95;;;0.80;;
64597;SDS011;51004;54.692;9.332;2023-08-21T12:34:13;5.18;;;0.88;;
64597;SDS011;51004;54.692;9.332;2023-08-21T12:36:39;5.53;;;1.00;;
64597;SDS011;51004;54.692;9.332;2023-08-21T12:39:06;6.75;;;1.13;;
64597;SDS011;51004;54.692;9.332;2023-08-21T12:41:32;2.85;;;1.02;;
64597;SDS011;51004;54.692;9.332;2023-08-21T12:44:01;3.45;;;0.80;;
64597;SDS011;51004;54.692;9.332;2023-08-21T12:46:28;3.55;;;1.08;;
64597;SDS011;51004;54.692;9.332;2023-08-21T12:48:54;5.88;;;1.13;;
64597;SDS011;51004;54.692;9.332;2023-08-21T12:51:21;2.50;;;0.95;;
64597;SDS011;51004;54.692;9.332;2023-08-21T12:53:47;4.95;;;0.90;;
64597;SDS011;51004;54.692;9.332;2023-08-21T12:56:13;2.10;;;0.80;;
64597;SDS011;51004;54.692;9.332;2023-08-21T12:58:39;3.13;;;1.05;;
64597;SDS011;51004;54.692;9.332;2023-08-21T13:01:05;3.78;;;1.10;;
64597;SDS011;51004;54.692;9.332;2023-08-21T13:03:33;4.68;;;1.13;;
64597;SDS011;51004;54.692;9.332;2023-08-21T13:05:59;5.53;;;1.08;;
64597;SDS011;51004;54.692;9.332;2023-08-21T13:08:31;4.93;;;0.98;;
64597;SDS011;51004;54.692;9.332;2023-08-21T13:10:57;3.65;;;0.80;;
64597;SDS011;51004;54.692;9.332;2023-08-21T13:13:23;4.03;;;0.85;;
64597;SDS011;51004;54.692;9.332;2023-08-21T13:15:49;4.97;;;1.42;;
64597;SDS011;51004;54.692;9.332;2023-08-21T13:18:15;2.63;;;0.77;;
64597;SDS011;51004;54.692;9.332;2023-08-21T13:20:44;3.08;;;0.90;;
64597;SDS011;51004;54.692;9.332;2023-08-21T13:23:10;4.55;;;1.00;;
64597;SDS011;51004;54.692;9.332;2023-08-21T13:25:36;3.15;;;0.88;;
64597;SDS011;51004;54.692;9.332;2023-08-21T13:28:02;3.58;;;0.98;;
64597;SDS011;51004;54.692;9.332;2023-08-21T13:30:28;5.95;;;1.10;;
64597;SDS011;51004;54.692;9.332;2023-08-21T13:32:55;4.35;;;1.20;;
64597;SDS011;51004;54.692;9.332;2023-08-21T13:35:21;4.70;;;1.52;;
64597;SDS011;51004;54.692;9.332;2023-08-21T13:37:50;4.88;;;1.80;;
64597;SDS011;51004;54.692;9.332;2023-08-21T13:40:17;4.03;;;1.15;;
64597;SDS011;51004;54.692;9.332;2023-08-21T13:42:44;4.53;;;1.10;;
64597;SDS011;51004;54.692;9.332;2023-08-21T13:45:15;4.10;;;1.45;;
64597;SDS011;51004;54.692;9.332;2023-08-21T13:47:42;4.78;;;1.27;;
64597;SDS011;51004;54.692;9.332;2023-08-21T13:50:08;3.90;;;0.90;;
64597;SDS011;51004;54.692;9.332;2023-08-21T13:52:35;5.30;;;1.40;;
64597;SDS011;51004;54.692;9.332;2023-08-21T13:55:01;4.50;;;1.00;;
64597;SDS011;51004;54.692;9.332;2023-08-21T13:57:28;4.50;;;1.30;;
64597;SDS011;51004;54.692;9.332;2023-08-21T13:59:56;6.38;;;1.58;;
64597;SDS011;51004;54.692;9.332;2023-08-21T14:02:22;4.53;;;1.63;;
64597;SDS011;51004;54.692;9.332;2023-08-21T14:04:53;4.03;;;1.08;;
64597;SDS011;51004;54.692;9.332;2023-08-21T14:07:19;9.18;;;1.40;;
64597;SDS011;51004;54.692;9.332;2023-08-21T14:09:45;5.03;;;1.15;;
64597;SDS011;51004;54.692;9.332;2023-08-21T14:12:11;5.95;;;1.88;;
64597;SDS011;51004;54.692;9.332;2023-08-21T14:14:37;3.50;;;1.10;;
64597;SDS011;51004;54.692;9.332;2023-08-21T14:17:03;6.32;;;1.23;;
64597;SDS011;51004;54.692;9.332;2023-08-21T14:19:33;5.30;;;1.30;;
64597;SDS011;51004;54.692;9.332;2023-08-21T14:21:59;4.20;;;1.15;;
64597;SDS011;51004;54.692;9.332;2023-08-21T14:24:26;5.93;;;1.65;;
64597;SDS011;51004;54.692;9.332;2023-08-21T14:26:52;4.05;;;1.10;;
64597;SDS011;51004;54.692;9.332;2023-08-21T14:29:18;4.65;;;1.52;;
64597;SDS011;51004;54.692;9.332;2023-08-21T14:31:44;4.20;;;1.15;;
64597;SDS011;51004;54.692;9.332;2023-08-21T14:34:11;4.97;;;1.38;;
64597;SDS011;51004;54.692;9.332;2023-08-21T14:36:37;6.80;;;1.17;;
64597;SDS011;51004;54.692;9.332;2023-08-21T14:39:03;7.85;;;1.48;;
64597;SDS011;51004;54.692;9.332;2023-08-21T14:41:30;4.47;;;1.20;;
64597;SDS011;51004;54.692;9.332;2023-08-21T14:43:56;3.95;;;1.50;;
64597;SDS011;51004;54.692;9.332;2023-08-21T14:46:22;5.47;;;1.30;;
64597;SDS011;51004;54.692;9.332;2023-08-21T14:48:48;5.47;;;1.50;;
64597;SDS011;51004;54.692;9.332;2023-08-21T14:51:14;2.78;;;1.20;;
64597;SDS011;51004;54.692;9.332;2023-08-21T14:53:40;4.38;;;1.52;;
64597;SDS011;51004;54.692;9.332;2023-08-21T14:56:06;5.65;;;1.30;;
64597;SDS011;51004;54.692;9.332;2023-08-21T14:58:32;4.55;;;1.42;;
64597;SDS011;51004;54.692;9.332;2023-08-21T15:00:58;4.22;;;1.23;;
64597;SDS011;51004;54.692;9.332;2023-08-21T15:03:24;3.85;;;1.08;;
64597;SDS011;51004;54.692;9.332;2023-08-21T15:05:50;4.10;;;1.70;;
64597;SDS011;51004;54.692;9.332;2023-08-21T15:08:16;4.05;;;1.27;;
64597;SDS011;51004;54.692;9.332;2023-08-21T15:10:42;3.25;;;1.05;;
64597;SDS011;51004;54.692;9.332;2023-08-21T15:13:08;5.18;;;1.50;;
64597;SDS011;51004;54.692;9.332;2023-08-21T15:15:34;8.32;;;1.70;;
64597;SDS011;51004;54.692;9.332;2023-08-21T15:18:00;4.13;;;1.40;;
64597;SDS011;51004;54.692;9.332;2023-08-21T15:20:26;4.78;;;1.42;;